sensor_id;sensor_type;location;lat;lon;timestamp;P1;durP1;ratioP1;P2;durP2;ratioP2
75261;SDS011;63859;51.064;4.580;2023-03-23T00:01:13;4.05;;;2.60;;
75261;SDS011;63859;51.064;4.580;2023-03-23T00:03:44;4.88;;;3.03;;
75261;SDS011;63859;51.064;4.580;2023-03-23T00:06:14;5.20;;;3.60;;
75261;SDS011;63859;51.064;4.580;2023-03-23T00:08:45;5.70;;;3.50;;
75261;SDS011;63859;51.064;4.580;2023-03-23T00:11:13;5.82;;;3.88;;
75261;SDS011;63859;51.064;4.580;2023-03-23T00:13:42;7.30;;;3.27;;
75261;SDS011;63859;51.064;4.580;2023-03-23T00:16:08;4.07;;;3.38;;
75261;SDS011;63859;51.064;4.580;2023-03-23T00:18:47;5.88;;;3.35;;
75261;SDS011;63859;51.064;4.580;2023-03-23T00:21:20;6.63;;;3.78;;
75261;SDS011;63859;51.064;4.580;2023-03-23T00:23:57;8.83;;;3.77;;
75261;SDS011;63859;51.064;4.580;2023-03-23T00:26:24;5.50;;;3.60;;
75261;SDS011;63859;51.064;4.580;2023-03-23T00:28:53;9.15;;;4.00;;
75261;SDS011;63859;51.064;4.580;2023-03-23T00:31:19;7.35;;;3.97;;
75261;SDS011;63859;51.064;4.580;2023-03-23T00:33:44;7.30;;;4.15;;
75261;SDS011;63859;51.064;4.580;2023-03-23T00:36:11;8.30;;;4.75;;
75261;SDS011;63859;51.064;4.580;2023-03-23T00:38:38;5.60;;;3.80;;
75261;SDS011;63859;51.064;4.580;2023-03-23T00:41:05;7.90;;;4.15;;
75261;SDS011;63859;51.064;4.580;2023-03-23T00:43:32;8.63;;;4.57;;
75261;SDS011;63859;51.064;4.580;2023-03-23T00:46:00;7.88;;;4.00;;
75261;SDS011;63859;51.064;4.580;2023-03-23T00:48:28;6.38;;;3.92;;
75261;SDS011;63859;51.064;4.580;2023-03-23T00:50:54;9.95;;;4.32;;
75261;SDS011;63859;51.064;4.580;2023-03-23T00:53:20;6.07;;;3.80;;
75261;SDS011;63859;51.064;4.580;2023-03-23T00:55:46;6.68;;;3.70;;
75261;SDS011;63859;51.064;4.580;2023-03-23T00:58:14;4.88;;;3.42;;
75261;SDS011;63859;51.064;4.580;2023-03-23T01:00:40;6.63;;;3.70;;
75261;SDS011;63859;51.064;4.580;2023-03-23T01:03:07;6.43;;;4.07;;
75261;SDS011;63859;51.064;4.580;2023-03-23T01:05:37;4.88;;;3.90;;
75261;SDS011;63859;51.064;4.580;2023-03-23T01:08:04;5.10;;;3.53;;
75261;SDS011;63859;51.064;4.580;2023-03-23T01:10:31;7.68;;;4.00;;
75261;SDS011;63859;51.064;4.580;2023-03-23T01:12:58;5.78;;;4.00;;
75261;SDS011;63859;51.064;4.580;2023-03-23T01:15:26;7.40;;;3.45;;
75261;SDS011;63859;51.064;4.580;2023-03-23T01:17:52;4.38;;;3.50;;
75261;SDS011;63859;51.064;4.580;2023-03-23T01:20:18;7.47;;;3.95;;
75261;SDS011;63859;51.064;4.580;2023-03-23T01:22:44;5.80;;;3.38;;
75261;SDS011;63859;51.064;4.580;2023-03-23T01:25:10;5.78;;;3.40;;
75261;SDS011;63859;51.064;4.580;2023-03-23T01:27:37;5.80;;;3.22;;
75261;SDS011;63859;51.064;4.580;2023-03-23T01:30:03;5.07;;;3.33;;
75261;SDS011;63859;51.064;4.580;2023-03-23T01:32:31;5.70;;;3.13;;
75261;SDS011;63859;51.064;4.580;2023-03-23T01:34:57;4.97;;;3.13;;
75261;SDS011;63859;51.064;4.580;2023-03-23T01:37:23;4.75;;;3.08;;
75261;SDS011;63859;51.064;4.580;2023-03-23T01:39:55;6.32;;;3.42;;
75261;SDS011;63859;51.064;4.580;2023-03-23T01:42:22;6.82;;;3.83;;
75261;SDS011;63859;51.064;4.580;2023-03-23T01:47:39;4.80;;;3.47;;
75261;SDS011;63859;51.064;4.580;2023-03-23T01:50:05;4.65;;;3.15;;
75261;SDS011;63859;51.064;4.580;2023-03-23T01:52:31;5.97;;;3.85;;
75261;SDS011;63859;51.064;4.580;2023-03-23T01:54:58;6.15;;;3.55;;
75261;SDS011;63859;51.064;4.580;2023-03-23T01:57:25;10.52;;;3.88;;
75261;SDS011;63859;51.064;4.580;2023-03-23T01:59:52;5.65;;;3.70;;
75261;SDS011;63859;51.064;4.580;2023-03-23T02:02:21;8.00;;;3.80;;
75261;SDS011;63859;51.064;4.580;2023-03-23T02:04:48;4.15;;;3.15;;
75261;SDS011;63859;51.064;4.580;2023-03-23T02:07:15;5.85;;;3.42;;
75261;SDS011;63859;51.064;4.580;2023-03-23T02:09:45;4.20;;;3.40;;
75261;SDS011;63859;51.064;4.580;2023-03-23T02:12:10;4.10;;;3.30;;
75261;SDS011;63859;51.064;4.580;2023-03-23T02:14:36;4.80;;;3.50;;
75261;SDS011;63859;51.064;4.580;2023-03-23T02:28:27;5.22;;;3.38;;
75261;SDS011;63859;51.064;4.580;2023-03-23T02:33:56;6.80;;;3.60;;
75261;SDS011;63859;51.064;4.580;2023-03-23T02:36:28;4.32;;;3.13;;
75261;SDS011;63859;51.064;4.580;2023-03-23T02:39:08;6.28;;;2.78;;
75261;SDS011;63859;51.064;4.580;2023-03-23T02:41:45;5.13;;;3.03;;
75261;SDS011;63859;51.064;4.580;2023-03-23T02:44:15;8.27;;;2.75;;
75261;SDS011;63859;51.064;4.580;2023-03-23T02:46:42;5.55;;;2.60;;
75261;SDS011;63859;51.064;4.580;2023-03-23T02:49:09;6.80;;;2.78;;
75261;SDS011;63859;51.064;4.580;2023-03-23T02:51:40;12.30;;;2.30;;
75261;SDS011;63859;51.064;4.580;2023-03-23T02:54:08;4.82;;;2.20;;
75261;SDS011;63859;51.064;4.580;2023-03-23T02:56:35;7.32;;;2.40;;
75261;SDS011;63859;51.064;4.580;2023-03-23T02:59:01;4.70;;;1.83;;
75261;SDS011;63859;51.064;4.580;2023-03-23T03:04:01;4.30;;;2.30;;
75261;SDS011;63859;51.064;4.580;2023-03-23T03:06:42;4.25;;;1.80;;
75261;SDS011;63859;51.064;4.580;2023-03-23T03:09:42;6.93;;;2.10;;
75261;SDS011;63859;51.064;4.580;2023-03-23T03:12:24;5.45;;;2.42;;
75261;SDS011;63859;51.064;4.580;2023-03-23T03:15:18;2.63;;;1.90;;
75261;SDS011;63859;51.064;4.580;2023-03-23T03:18:11;4.23;;;2.00;;
75261;SDS011;63859;51.064;4.580;2023-03-23T03:20:50;6.47;;;2.17;;
75261;SDS011;63859;51.064;4.580;2023-03-23T03:23:18;9.30;;;1.93;;
75261;SDS011;63859;51.064;4.580;2023-03-23T03:25:46;6.47;;;2.27;;
75261;SDS011;63859;51.064;4.580;2023-03-23T03:28:17;5.27;;;2.10;;
75261;SDS011;63859;51.064;4.580;2023-03-23T03:30:47;3.10;;;1.80;;
75261;SDS011;63859;51.064;4.580;2023-03-23T03:33:19;8.00;;;2.13;;
75261;SDS011;63859;51.064;4.580;2023-03-23T03:35:45;5.10;;;2.00;;
75261;SDS011;63859;51.064;4.580;2023-03-23T03:38:12;4.43;;;1.70;;
75261;SDS011;63859;51.064;4.580;2023-03-23T03:40:38;4.22;;;1.90;;
75261;SDS011;63859;51.064;4.580;2023-03-23T03:43:03;7.37;;;2.03;;
75261;SDS011;63859;51.064;4.580;2023-03-23T03:45:30;4.00;;;2.10;;
75261;SDS011;63859;51.064;4.580;2023-03-23T03:47:56;4.47;;;1.83;;
75261;SDS011;63859;51.064;4.580;2023-03-23T03:50:22;5.77;;;1.83;;
75261;SDS011;63859;51.064;4.580;2023-03-23T03:52:48;4.80;;;1.80;;
75261;SDS011;63859;51.064;4.580;2023-03-23T03:55:14;5.18;;;1.60;;
75261;SDS011;63859;51.064;4.580;2023-03-23T03:57:41;3.63;;;1.70;;
75261;SDS011;63859;51.064;4.580;2023-03-23T04:00:07;6.72;;;1.70;;
75261;SDS011;63859;51.064;4.580;2023-03-23T04:02:49;3.08;;;1.60;;
75261;SDS011;63859;51.064;4.580;2023-03-23T04:05:19;3.30;;;2.10;;
75261;SDS011;63859;51.064;4.580;2023-03-23T04:07:46;4.40;;;1.80;;
75261;SDS011;63859;51.064;4.580;2023-03-23T04:10:14;6.28;;;1.77;;
75261;SDS011;63859;51.064;4.580;2023-03-23T04:12:40;6.32;;;2.10;;
75261;SDS011;63859;51.064;4.580;2023-03-23T04:15:06;4.25;;;1.85;;
75261;SDS011;63859;51.064;4.580;2023-03-23T04:17:33;5.93;;;2.08;;
75261;SDS011;63859;51.064;4.580;2023-03-23T04:19:59;6.83;;;1.70;;
75261;SDS011;63859;51.064;4.580;2023-03-23T04:22:25;6.95;;;2.30;;
75261;SDS011;63859;51.064;4.580;2023-03-23T04:24:58;7.40;;;1.80;;
75261;SDS011;63859;51.064;4.580;2023-03-23T04:27:26;7.75;;;2.10;;
75261;SDS011;63859;51.064;4.580;2023-03-23T04:29:53;5.35;;;1.92;;
75261;SDS011;63859;51.064;4.580;2023-03-23T04:32:23;10.55;;;1.95;;
75261;SDS011;63859;51.064;4.580;2023-03-23T04:34:53;7.60;;;2.70;;
75261;SDS011;63859;51.064;4.580;2023-03-23T04:37:25;8.65;;;2.55;;
75261;SDS011;63859;51.064;4.580;2023-03-23T04:39:54;7.38;;;2.00;;
75261;SDS011;63859;51.064;4.580;2023-03-23T04:42:28;10.87;;;2.03;;
75261;SDS011;63859;51.064;4.580;2023-03-23T04:44:56;6.63;;;1.95;;
75261;SDS011;63859;51.064;4.580;2023-03-23T04:47:22;7.90;;;2.10;;
75261;SDS011;63859;51.064;4.580;2023-03-23T04:49:49;7.35;;;2.05;;
75261;SDS011;63859;51.064;4.580;2023-03-23T04:52:16;5.40;;;1.90;;
75261;SDS011;63859;51.064;4.580;2023-03-23T04:54:42;6.95;;;2.00;;
75261;SDS011;63859;51.064;4.580;2023-03-23T04:57:09;5.85;;;2.03;;
75261;SDS011;63859;51.064;4.580;2023-03-23T04:59:34;9.43;;;2.28;;
75261;SDS011;63859;51.064;4.580;2023-03-23T05:02:00;6.55;;;2.00;;
75261;SDS011;63859;51.064;4.580;2023-03-23T05:04:27;5.60;;;2.00;;
75261;SDS011;63859;51.064;4.580;2023-03-23T05:06:52;5.93;;;1.77;;
75261;SDS011;63859;51.064;4.580;2023-03-23T05:09:18;9.70;;;2.53;;
75261;SDS011;63859;51.064;4.580;2023-03-23T05:11:44;6.72;;;1.70;;
75261;SDS011;63859;51.064;4.580;2023-03-23T05:14:10;6.97;;;2.13;;
75261;SDS011;63859;51.064;4.580;2023-03-23T05:16:37;8.83;;;2.27;;
75261;SDS011;63859;51.064;4.580;2023-03-23T05:19:04;12.25;;;2.40;;
75261;SDS011;63859;51.064;4.580;2023-03-23T05:21:30;10.15;;;1.98;;
75261;SDS011;63859;51.064;4.580;2023-03-23T05:23:56;10.93;;;2.20;;
75261;SDS011;63859;51.064;4.580;2023-03-23T05:26:25;6.60;;;1.92;;
75261;SDS011;63859;51.064;4.580;2023-03-23T05:28:53;5.25;;;2.22;;
75261;SDS011;63859;51.064;4.580;2023-03-23T05:31:22;17.88;;;3.15;;
75261;SDS011;63859;51.064;4.580;2023-03-23T05:33:49;9.07;;;1.77;;
75261;SDS011;63859;51.064;4.580;2023-03-23T05:36:15;7.32;;;1.80;;
75261;SDS011;63859;51.064;4.580;2023-03-23T05:38:41;6.85;;;1.83;;
75261;SDS011;63859;51.064;4.580;2023-03-23T05:41:10;8.23;;;1.90;;
75261;SDS011;63859;51.064;4.580;2023-03-23T05:43:36;9.95;;;2.28;;
75261;SDS011;63859;51.064;4.580;2023-03-23T05:46:02;6.13;;;1.95;;
75261;SDS011;63859;51.064;4.580;2023-03-23T05:48:28;4.85;;;1.70;;
75261;SDS011;63859;51.064;4.580;2023-03-23T05:50:54;3.58;;;1.55;;
75261;SDS011;63859;51.064;4.580;2023-03-23T05:53:19;7.80;;;2.10;;
75261;SDS011;63859;51.064;4.580;2023-03-23T05:55:45;10.40;;;2.37;;
75261;SDS011;63859;51.064;4.580;2023-03-23T05:58:11;6.90;;;1.77;;
75261;SDS011;63859;51.064;4.580;2023-03-23T06:00:37;9.43;;;2.03;;
75261;SDS011;63859;51.064;4.580;2023-03-23T06:03:03;8.75;;;1.98;;
75261;SDS011;63859;51.064;4.580;2023-03-23T06:05:29;9.77;;;2.15;;
75261;SDS011;63859;51.064;4.580;2023-03-23T06:07:55;5.95;;;2.15;;
75261;SDS011;63859;51.064;4.580;2023-03-23T06:10:20;7.63;;;2.63;;
75261;SDS011;63859;51.064;4.580;2023-03-23T06:12:47;9.63;;;2.15;;
75261;SDS011;63859;51.064;4.580;2023-03-23T06:15:16;8.60;;;2.10;;
75261;SDS011;63859;51.064;4.580;2023-03-23T06:17:42;6.20;;;1.93;;
75261;SDS011;63859;51.064;4.580;2023-03-23T06:20:08;6.43;;;1.95;;
75261;SDS011;63859;51.064;4.580;2023-03-23T06:22:38;7.72;;;2.05;;
75261;SDS011;63859;51.064;4.580;2023-03-23T06:25:07;6.10;;;1.77;;
75261;SDS011;63859;51.064;4.580;2023-03-23T06:27:34;6.07;;;1.98;;
75261;SDS011;63859;51.064;4.580;2023-03-23T06:30:00;8.27;;;2.35;;
75261;SDS011;63859;51.064;4.580;2023-03-23T06:32:27;6.22;;;1.90;;
75261;SDS011;63859;51.064;4.580;2023-03-23T06:34:55;9.82;;;2.50;;
75261;SDS011;63859;51.064;4.580;2023-03-23T06:37:22;8.17;;;2.27;;
75261;SDS011;63859;51.064;4.580;2023-03-23T06:39:48;8.23;;;2.30;;
75261;SDS011;63859;51.064;4.580;2023-03-23T06:42:14;9.95;;;2.00;;
75261;SDS011;63859;51.064;4.580;2023-03-23T06:44:39;6.35;;;1.80;;
75261;SDS011;63859;51.064;4.580;2023-03-23T06:47:05;6.22;;;1.90;;
75261;SDS011;63859;51.064;4.580;2023-03-23T06:49:32;1.75;;;1.05;;
75261;SDS011;63859;51.064;4.580;2023-03-23T06:51:58;3.33;;;1.10;;
75261;SDS011;63859;51.064;4.580;2023-03-23T06:54:26;2.67;;;0.90;;
75261;SDS011;63859;51.064;4.580;2023-03-23T06:56:52;2.03;;;0.80;;
75261;SDS011;63859;51.064;4.580;2023-03-23T06:59:18;4.67;;;1.10;;
75261;SDS011;63859;51.064;4.580;2023-03-23T07:01:44;3.27;;;0.80;;
75261;SDS011;63859;51.064;4.580;2023-03-23T07:04:11;5.47;;;1.67;;
75261;SDS011;63859;51.064;4.580;2023-03-23T07:06:37;3.27;;;0.90;;
75261;SDS011;63859;51.064;4.580;2023-03-23T07:09:03;3.37;;;1.40;;
75261;SDS011;63859;51.064;4.580;2023-03-23T07:11:29;1.83;;;1.03;;
75261;SDS011;63859;51.064;4.580;2023-03-23T07:13:55;4.47;;;1.23;;
75261;SDS011;63859;51.064;4.580;2023-03-23T07:16:21;2.53;;;1.10;;
75261;SDS011;63859;51.064;4.580;2023-03-23T07:18:46;2.40;;;1.17;;
75261;SDS011;63859;51.064;4.580;2023-03-23T07:21:12;4.63;;;1.40;;
75261;SDS011;63859;51.064;4.580;2023-03-23T07:23:38;4.23;;;1.23;;
75261;SDS011;63859;51.064;4.580;2023-03-23T07:26:03;3.43;;;1.20;;
75261;SDS011;63859;51.064;4.580;2023-03-23T07:28:29;2.97;;;1.23;;
75261;SDS011;63859;51.064;4.580;2023-03-23T07:30:56;2.90;;;1.30;;
75261;SDS011;63859;51.064;4.580;2023-03-23T07:33:21;4.97;;;1.60;;
75261;SDS011;63859;51.064;4.580;2023-03-23T07:35:47;3.33;;;1.20;;
75261;SDS011;63859;51.064;4.580;2023-03-23T07:38:13;4.43;;;1.30;;
75261;SDS011;63859;51.064;4.580;2023-03-23T07:40:39;1.63;;;0.90;;
75261;SDS011;63859;51.064;4.580;2023-03-23T07:43:05;12.33;;;2.20;;
75261;SDS011;63859;51.064;4.580;2023-03-23T07:45:32;3.80;;;1.00;;
75261;SDS011;63859;51.064;4.580;2023-03-23T07:47:58;6.20;;;1.37;;
75261;SDS011;63859;51.064;4.580;2023-03-23T07:50:25;6.80;;;1.50;;
75261;SDS011;63859;51.064;4.580;2023-03-23T07:52:53;4.73;;;1.40;;
75261;SDS011;63859;51.064;4.580;2023-03-23T07:55:20;6.13;;;1.40;;
75261;SDS011;63859;51.064;4.580;2023-03-23T07:57:46;2.47;;;1.37;;
75261;SDS011;63859;51.064;4.580;2023-03-23T08:00:14;6.07;;;1.67;;
75261;SDS011;63859;51.064;4.580;2023-03-23T08:02:43;4.83;;;1.50;;
75261;SDS011;63859;51.064;4.580;2023-03-23T08:05:13;1.37;;;1.20;;
75261;SDS011;63859;51.064;4.580;2023-03-23T08:07:40;3.87;;;1.23;;
75261;SDS011;63859;51.064;4.580;2023-03-23T08:10:07;5.13;;;1.43;;
75261;SDS011;63859;51.064;4.580;2023-03-23T08:12:37;5.47;;;1.57;;
75261;SDS011;63859;51.064;4.580;2023-03-23T08:15:05;6.90;;;1.40;;
75261;SDS011;63859;51.064;4.580;2023-03-23T08:17:32;4.30;;;1.30;;
75261;SDS011;63859;51.064;4.580;2023-03-23T08:19:59;3.63;;;1.07;;
75261;SDS011;63859;51.064;4.580;2023-03-23T08:22:25;5.27;;;1.63;;
75261;SDS011;63859;51.064;4.580;2023-03-23T08:24:51;4.43;;;1.50;;
75261;SDS011;63859;51.064;4.580;2023-03-23T08:27:17;7.23;;;1.50;;
75261;SDS011;63859;51.064;4.580;2023-03-23T08:29:46;6.57;;;1.70;;
75261;SDS011;63859;51.064;4.580;2023-03-23T08:32:12;2.73;;;1.50;;
75261;SDS011;63859;51.064;4.580;2023-03-23T08:34:39;8.73;;;1.60;;
75261;SDS011;63859;51.064;4.580;2023-03-23T08:37:06;7.40;;;1.50;;
75261;SDS011;63859;51.064;4.580;2023-03-23T08:39:34;8.50;;;1.97;;
75261;SDS011;63859;51.064;4.580;2023-03-23T08:41:59;13.27;;;2.17;;
75261;SDS011;63859;51.064;4.580;2023-03-23T08:44:25;24.80;;;3.10;;
75261;SDS011;63859;51.064;4.580;2023-03-23T08:46:50;12.97;;;2.50;;
75261;SDS011;63859;51.064;4.580;2023-03-23T08:49:21;8.33;;;2.17;;
75261;SDS011;63859;51.064;4.580;2023-03-23T08:51:47;19.67;;;2.80;;
75261;SDS011;63859;51.064;4.580;2023-03-23T08:54:13;8.10;;;2.27;;
75261;SDS011;63859;51.064;4.580;2023-03-23T08:56:39;22.77;;;4.67;;
75261;SDS011;63859;51.064;4.580;2023-03-23T08:59:05;15.40;;;2.73;;
75261;SDS011;63859;51.064;4.580;2023-03-23T09:01:32;12.50;;;2.93;;
75261;SDS011;63859;51.064;4.580;2023-03-23T09:03:58;8.43;;;1.73;;
75261;SDS011;63859;51.064;4.580;2023-03-23T09:06:25;15.90;;;2.63;;
75261;SDS011;63859;51.064;4.580;2023-03-23T09:08:51;19.20;;;3.27;;
75261;SDS011;63859;51.064;4.580;2023-03-23T09:11:18;8.10;;;1.80;;
75261;SDS011;63859;51.064;4.580;2023-03-23T09:13:43;6.40;;;1.83;;
75261;SDS011;63859;51.064;4.580;2023-03-23T09:16:09;15.23;;;2.20;;
75261;SDS011;63859;51.064;4.580;2023-03-23T09:18:35;19.13;;;3.13;;
75261;SDS011;63859;51.064;4.580;2023-03-23T09:21:01;7.93;;;2.87;;
75261;SDS011;63859;51.064;4.580;2023-03-23T09:23:28;10.03;;;2.27;;
75261;SDS011;63859;51.064;4.580;2023-03-23T09:25:54;8.07;;;2.60;;
75261;SDS011;63859;51.064;4.580;2023-03-23T09:28:20;8.37;;;1.83;;
75261;SDS011;63859;51.064;4.580;2023-03-23T09:30:46;6.90;;;1.90;;
75261;SDS011;63859;51.064;4.580;2023-03-23T09:33:12;11.43;;;2.30;;
75261;SDS011;63859;51.064;4.580;2023-03-23T09:35:38;10.30;;;2.20;;
75261;SDS011;63859;51.064;4.580;2023-03-23T09:38:06;9.87;;;2.30;;
75261;SDS011;63859;51.064;4.580;2023-03-23T09:40:55;10.37;;;2.10;;
75261;SDS011;63859;51.064;4.580;2023-03-23T09:52:13;5.68;;;1.60;;
75261;SDS011;63859;51.064;4.580;2023-03-23T09:54:41;4.73;;;1.53;;
75261;SDS011;63859;51.064;4.580;2023-03-23T10:00:21;6.87;;;1.70;;
75261;SDS011;63859;51.064;4.580;2023-03-23T10:03:02;4.27;;;1.57;;
75261;SDS011;63859;51.064;4.580;2023-03-23T10:05:44;7.73;;;1.90;;
75261;SDS011;63859;51.064;4.580;2023-03-23T10:08:18;10.27;;;2.10;;
75261;SDS011;63859;51.064;4.580;2023-03-23T10:16:03;10.73;;;2.45;;
75261;SDS011;63859;51.064;4.580;2023-03-23T10:18:38;9.80;;;2.03;;
75261;SDS011;63859;51.064;4.580;2023-03-23T10:21:13;8.15;;;2.08;;
75261;SDS011;63859;51.064;4.580;2023-03-23T10:31:39;3.25;;;1.73;;
75261;SDS011;63859;51.064;4.580;2023-03-23T10:34:10;10.57;;;2.83;;
75261;SDS011;63859;51.064;4.580;2023-03-23T10:37:04;13.38;;;2.67;;
75261;SDS011;63859;51.064;4.580;2023-03-23T10:39:53;9.40;;;2.35;;
75261;SDS011;63859;51.064;4.580;2023-03-23T10:42:29;5.53;;;2.05;;
75261;SDS011;63859;51.064;4.580;2023-03-23T10:44:58;5.72;;;2.40;;
75261;SDS011;63859;51.064;4.580;2023-03-23T10:47:25;11.30;;;2.58;;
75261;SDS011;63859;51.064;4.580;2023-03-23T10:49:59;4.57;;;1.70;;
75261;SDS011;63859;51.064;4.580;2023-03-23T10:55:05;10.20;;;2.10;;
75261;SDS011;63859;51.064;4.580;2023-03-23T10:57:35;9.38;;;2.28;;
75261;SDS011;63859;51.064;4.580;2023-03-23T11:00:22;7.30;;;2.00;;
75261;SDS011;63859;51.064;4.580;2023-03-23T11:05:35;5.32;;;2.40;;
75261;SDS011;63859;51.064;4.580;2023-03-23T11:08:03;10.02;;;2.15;;
75261;SDS011;63859;51.064;4.580;2023-03-23T11:10:37;7.25;;;1.92;;
75261;SDS011;63859;51.064;4.580;2023-03-23T11:13:10;4.95;;;1.95;;
75261;SDS011;63859;51.064;4.580;2023-03-23T11:15:40;9.45;;;1.88;;
75261;SDS011;63859;51.064;4.580;2023-03-23T11:18:10;6.72;;;2.58;;
75261;SDS011;63859;51.064;4.580;2023-03-23T11:20:41;6.68;;;2.13;;
75261;SDS011;63859;51.064;4.580;2023-03-23T11:23:10;8.55;;;2.38;;
75261;SDS011;63859;51.064;4.580;2023-03-23T11:28:27;7.65;;;2.10;;
75261;SDS011;63859;51.064;4.580;2023-03-23T11:30:56;6.10;;;2.35;;
75261;SDS011;63859;51.064;4.580;2023-03-23T11:33:23;9.02;;;2.30;;
75261;SDS011;63859;51.064;4.580;2023-03-23T11:35:50;5.43;;;2.35;;
75261;SDS011;63859;51.064;4.580;2023-03-23T11:38:19;9.32;;;2.50;;
75261;SDS011;63859;51.064;4.580;2023-03-23T11:40:48;10.55;;;2.50;;
75261;SDS011;63859;51.064;4.580;2023-03-23T11:43:19;9.32;;;2.70;;
75261;SDS011;63859;51.064;4.580;2023-03-23T11:45:56;8.93;;;2.58;;
75261;SDS011;63859;51.064;4.580;2023-03-23T11:51:14;4.45;;;2.35;;
75261;SDS011;63859;51.064;4.580;2023-03-23T11:54:20;9.20;;;2.50;;
75261;SDS011;63859;51.064;4.580;2023-03-23T11:57:08;8.18;;;2.70;;
75261;SDS011;63859;51.064;4.580;2023-03-23T11:59:36;9.30;;;3.25;;
75261;SDS011;63859;51.064;4.580;2023-03-23T12:10:58;9.50;;;2.20;;
75261;SDS011;63859;51.064;4.580;2023-03-23T12:13:34;20.75;;;3.25;;
75261;SDS011;63859;51.064;4.580;2023-03-23T12:18:59;5.22;;;2.47;;
75261;SDS011;63859;51.064;4.580;2023-03-23T12:22:22;10.13;;;2.58;;
75261;SDS011;63859;51.064;4.580;2023-03-23T12:30:20;7.28;;;2.53;;
75261;SDS011;63859;51.064;4.580;2023-03-23T12:41:24;13.40;;;2.28;;
75261;SDS011;63859;51.064;4.580;2023-03-23T12:44:12;17.35;;;2.45;;
75261;SDS011;63859;51.064;4.580;2023-03-23T12:46:55;7.55;;;1.77;;
75261;SDS011;63859;51.064;4.580;2023-03-23T12:52:13;7.05;;;2.10;;
75261;SDS011;63859;51.064;4.580;2023-03-23T12:54:50;6.15;;;1.92;;
75261;SDS011;63859;51.064;4.580;2023-03-23T13:02:39;9.05;;;2.05;;
75261;SDS011;63859;51.064;4.580;2023-03-23T13:07:45;5.95;;;2.00;;
75261;SDS011;63859;51.064;4.580;2023-03-23T13:10:25;8.23;;;1.88;;
75261;SDS011;63859;51.064;4.580;2023-03-23T13:12:54;5.60;;;1.88;;
75261;SDS011;63859;51.064;4.580;2023-03-23T13:15:33;5.70;;;1.98;;
75261;SDS011;63859;51.064;4.580;2023-03-23T13:26:03;13.65;;;2.50;;
75261;SDS011;63859;51.064;4.580;2023-03-23T13:29:01;11.98;;;3.00;;
75261;SDS011;63859;51.064;4.580;2023-03-23T13:31:44;13.27;;;3.38;;
75261;SDS011;63859;51.064;4.580;2023-03-23T13:34:14;5.53;;;2.42;;
75261;SDS011;63859;51.064;4.580;2023-03-23T13:36:58;6.25;;;2.22;;
75261;SDS011;63859;51.064;4.580;2023-03-23T13:39:28;7.28;;;1.73;;
75261;SDS011;63859;51.064;4.580;2023-03-23T13:44:43;6.35;;;2.22;;
75261;SDS011;63859;51.064;4.580;2023-03-23T13:49:54;9.13;;;2.10;;
75261;SDS011;63859;51.064;4.580;2023-03-23T13:53:13;7.50;;;2.35;;
75261;SDS011;63859;51.064;4.580;2023-03-23T14:10:59;7.47;;;2.00;;
75261;SDS011;63859;51.064;4.580;2023-03-23T14:13:45;12.88;;;2.40;;
75261;SDS011;63859;51.064;4.580;2023-03-23T14:16:31;10.10;;;2.30;;
75261;SDS011;63859;51.064;4.580;2023-03-23T14:19:01;11.85;;;2.60;;
75261;SDS011;63859;51.064;4.580;2023-03-23T14:24:02;9.50;;;2.47;;
75261;SDS011;63859;51.064;4.580;2023-03-23T14:26:33;8.82;;;2.35;;
75261;SDS011;63859;51.064;4.580;2023-03-23T14:29:01;6.25;;;2.10;;
75261;SDS011;63859;51.064;4.580;2023-03-23T14:31:28;7.03;;;2.35;;
75261;SDS011;63859;51.064;4.580;2023-03-23T14:33:54;12.25;;;2.95;;
75261;SDS011;63859;51.064;4.580;2023-03-23T14:36:22;6.68;;;2.05;;
75261;SDS011;63859;51.064;4.580;2023-03-23T14:41:28;9.60;;;2.28;;
75261;SDS011;63859;51.064;4.580;2023-03-23T14:43:55;9.63;;;2.40;;
75261;SDS011;63859;51.064;4.580;2023-03-23T14:46:22;7.90;;;2.10;;
75261;SDS011;63859;51.064;4.580;2023-03-23T14:48:49;6.63;;;2.20;;
75261;SDS011;63859;51.064;4.580;2023-03-23T14:51:17;6.03;;;1.90;;
75261;SDS011;63859;51.064;4.580;2023-03-23T14:53:44;5.28;;;2.17;;
75261;SDS011;63859;51.064;4.580;2023-03-23T14:56:17;7.85;;;2.05;;
75261;SDS011;63859;51.064;4.580;2023-03-23T14:58:47;12.95;;;2.67;;
75261;SDS011;63859;51.064;4.580;2023-03-23T15:01:17;10.07;;;2.45;;
75261;SDS011;63859;51.064;4.580;2023-03-23T15:03:52;10.23;;;2.70;;
75261;SDS011;63859;51.064;4.580;2023-03-23T15:06:23;7.90;;;2.45;;
75261;SDS011;63859;51.064;4.580;2023-03-23T15:08:51;9.25;;;3.00;;
75261;SDS011;63859;51.064;4.580;2023-03-23T15:13:53;7.97;;;2.50;;
75261;SDS011;63859;51.064;4.580;2023-03-23T15:16:26;10.10;;;2.22;;
75261;SDS011;63859;51.064;4.580;2023-03-23T15:18:54;9.80;;;2.70;;
75261;SDS011;63859;51.064;4.580;2023-03-23T15:23:59;7.28;;;2.17;;
75261;SDS011;63859;51.064;4.580;2023-03-23T15:32:09;9.20;;;2.58;;
75261;SDS011;63859;51.064;4.580;2023-03-23T15:34:29;12.93;;;2.85;;
75261;SDS011;63859;51.064;4.580;2023-03-23T15:37:01;9.25;;;2.90;;
75261;SDS011;63859;51.064;4.580;2023-03-23T15:39:29;8.38;;;2.28;;
75261;SDS011;63859;51.064;4.580;2023-03-23T15:41:56;11.05;;;2.72;;
75261;SDS011;63859;51.064;4.580;2023-03-23T15:44:30;6.88;;;2.50;;
75261;SDS011;63859;51.064;4.580;2023-03-23T15:47:14;9.65;;;2.30;;
75261;SDS011;63859;51.064;4.580;2023-03-23T15:49:43;12.68;;;2.53;;
75261;SDS011;63859;51.064;4.580;2023-03-23T15:52:10;11.40;;;2.45;;
75261;SDS011;63859;51.064;4.580;2023-03-23T15:54:37;10.13;;;2.33;;
75261;SDS011;63859;51.064;4.580;2023-03-23T15:57:04;9.68;;;2.95;;
75261;SDS011;63859;51.064;4.580;2023-03-23T15:59:29;15.07;;;3.67;;
75261;SDS011;63859;51.064;4.580;2023-03-23T16:01:55;11.65;;;3.25;;
75261;SDS011;63859;51.064;4.580;2023-03-23T16:04:21;10.00;;;3.38;;
75261;SDS011;63859;51.064;4.580;2023-03-23T16:06:47;16.73;;;4.07;;
75261;SDS011;63859;51.064;4.580;2023-03-23T16:09:17;11.48;;;3.67;;
75261;SDS011;63859;51.064;4.580;2023-03-23T16:11:44;12.18;;;3.17;;
75261;SDS011;63859;51.064;4.580;2023-03-23T16:14:10;12.23;;;3.40;;
75261;SDS011;63859;51.064;4.580;2023-03-23T16:16:45;11.15;;;3.63;;
75261;SDS011;63859;51.064;4.580;2023-03-23T16:19:13;11.50;;;3.30;;
75261;SDS011;63859;51.064;4.580;2023-03-23T16:21:40;16.73;;;3.50;;
75261;SDS011;63859;51.064;4.580;2023-03-23T16:24:06;10.77;;;3.88;;
75261;SDS011;63859;51.064;4.580;2023-03-23T16:26:33;12.18;;;3.38;;
75261;SDS011;63859;51.064;4.580;2023-03-23T16:29:00;13.57;;;3.42;;
75261;SDS011;63859;51.064;4.580;2023-03-23T16:31:26;10.57;;;3.63;;
75261;SDS011;63859;51.064;4.580;2023-03-23T16:33:53;10.48;;;3.50;;
75261;SDS011;63859;51.064;4.580;2023-03-23T16:36:19;15.75;;;3.80;;
75261;SDS011;63859;51.064;4.580;2023-03-23T16:38:44;8.68;;;2.63;;
75261;SDS011;63859;51.064;4.580;2023-03-23T16:41:10;16.00;;;3.60;;
75261;SDS011;63859;51.064;4.580;2023-03-23T16:43:36;9.07;;;3.08;;
75261;SDS011;63859;51.064;4.580;2023-03-23T16:46:01;9.02;;;2.90;;
75261;SDS011;63859;51.064;4.580;2023-03-23T16:48:27;8.48;;;2.83;;
75261;SDS011;63859;51.064;4.580;2023-03-23T16:50:53;8.13;;;2.55;;
75261;SDS011;63859;51.064;4.580;2023-03-23T16:53:18;9.38;;;2.67;;
75261;SDS011;63859;51.064;4.580;2023-03-23T16:55:45;6.10;;;2.10;;
75261;SDS011;63859;51.064;4.580;2023-03-23T16:58:12;12.85;;;2.95;;
75261;SDS011;63859;51.064;4.580;2023-03-23T17:00:39;10.25;;;2.50;;
75261;SDS011;63859;51.064;4.580;2023-03-23T17:03:05;17.27;;;2.75;;
75261;SDS011;63859;51.064;4.580;2023-03-23T17:05:31;8.32;;;2.47;;
75261;SDS011;63859;51.064;4.580;2023-03-23T17:07:57;7.53;;;2.40;;
75261;SDS011;63859;51.064;4.580;2023-03-23T17:10:23;13.48;;;2.92;;
75261;SDS011;63859;51.064;4.580;2023-03-23T17:12:51;10.77;;;3.15;;
75261;SDS011;63859;51.064;4.580;2023-03-23T17:15:18;11.27;;;2.90;;